createdAt,value
2022-08-27T00:00:53.412Z,2.20
2022-08-27T00:03:21.993Z,2.40
2022-08-27T00:05:50.509Z,3.00
2022-08-27T00:08:19.133Z,1.73
2022-08-27T00:10:47.646Z,2.00
2022-08-27T00:13:17.227Z,2.27
2022-08-27T00:15:46.286Z,2.53
2022-08-27T00:18:17.942Z,1.97
2022-08-27T00:20:48.390Z,2.20
2022-08-27T00:23:17.171Z,2.37
2022-08-27T00:25:45.762Z,2.00
2022-08-27T00:28:15.402Z,2.20
2022-08-27T00:30:44.129Z,1.87
2022-08-27T00:33:16.018Z,2.07
2022-08-27T00:35:44.547Z,1.83
2022-08-27T00:38:13.252Z,2.43
2022-08-27T00:40:42.741Z,2.17
2022-08-27T00:43:11.380Z,2.40
2022-08-27T00:45:43.364Z,2.50
2022-08-27T00:48:18.195Z,2.07
2022-08-27T00:50:50.830Z,1.90
2022-08-27T00:53:27.014Z,2.20
2022-08-27T00:56:05.861Z,1.70
2022-08-27T00:58:37.628Z,2.07
2022-08-27T01:01:09.327Z,2.13
2022-08-27T01:03:40.455Z,2.33
2022-08-27T01:06:16.284Z,2.13
2022-08-27T01:08:52.161Z,2.47
2022-08-27T01:11:21.542Z,2.20
2022-08-27T01:14:00.193Z,2.60
2022-08-27T01:16:37.173Z,2.30
2022-08-27T01:19:15.521Z,2.10
2022-08-27T01:21:51.013Z,2.07
2022-08-27T01:24:35.922Z,2.07
2022-08-27T01:27:06.346Z,1.73
2022-08-27T01:29:43.059Z,2.37
2022-08-27T01:32:15.525Z,2.10
2022-08-27T01:34:44.709Z,1.80
2022-08-27T01:37:15.661Z,2.50
2022-08-27T01:39:46.329Z,2.43
2022-08-27T01:42:20.660Z,2.60
2022-08-27T01:44:51.865Z,1.90
2022-08-27T01:47:22.426Z,2.63
2022-08-27T01:49:52.028Z,2.00
2022-08-27T01:52:23.842Z,2.50
2022-08-27T01:54:53.913Z,2.20
2022-08-27T01:57:26.000Z,2.13
2022-08-27T01:59:57.127Z,2.97
2022-08-27T02:02:26.527Z,2.47
2022-08-27T02:04:55.216Z,2.60
2022-08-27T02:07:23.748Z,1.73
2022-08-27T02:09:53.740Z,2.37
2022-08-27T02:12:22.795Z,3.53
2022-08-27T02:14:52.030Z,2.27
2022-08-27T02:17:20.885Z,2.43
2022-08-27T02:19:50.152Z,2.80
2022-08-27T02:22:20.307Z,2.30
2022-08-27T02:24:49.162Z,2.27
2022-08-27T02:27:19.641Z,2.60
2022-08-27T02:29:49.758Z,2.40
2022-08-27T02:32:31.408Z,2.27
2022-08-27T02:35:01.845Z,2.50
2022-08-27T02:37:31.064Z,2.43
2022-08-27T02:40:00.249Z,2.47
2022-08-27T02:42:30.628Z,2.57
2022-08-27T02:44:59.586Z,2.73
2022-08-27T02:47:28.291Z,2.20
2022-08-27T02:49:56.879Z,2.30
2022-08-27T02:52:28.074Z,2.10
2022-08-27T02:54:57.242Z,2.07
2022-08-27T02:57:27.974Z,2.30
2022-08-27T02:59:58.903Z,2.00
2022-08-27T03:02:27.869Z,2.90
2022-08-27T03:04:56.854Z,2.17
2022-08-27T03:07:25.643Z,2.37
2022-08-27T03:09:54.314Z,2.60
2022-08-27T03:12:24.890Z,2.53
2022-08-27T03:14:53.659Z,2.00
2022-08-27T03:17:41.078Z,2.83
2022-08-27T03:20:12.392Z,2.70
2022-08-27T03:22:42.313Z,2.67
2022-08-27T03:25:12.257Z,2.40
2022-08-27T03:27:41.249Z,2.40
2022-08-27T03:30:13.902Z,2.90
2022-08-27T03:32:44.253Z,2.40
2022-08-27T03:35:14.006Z,2.67
2022-08-27T03:37:42.955Z,2.93
2022-08-27T03:40:13.508Z,2.87
2022-08-27T03:42:44.114Z,2.13
2022-08-27T03:45:13.753Z,2.60
2022-08-27T03:47:43.829Z,2.70
2022-08-27T03:50:12.870Z,2.50
2022-08-27T03:52:41.555Z,3.07
2022-08-27T03:55:10.880Z,3.03
2022-08-27T03:57:40.874Z,2.90
2022-08-27T04:00:12.404Z,2.73
2022-08-27T04:02:41.864Z,3.13
2022-08-27T04:05:13.382Z,2.90
2022-08-27T04:07:43.256Z,3.00
2022-08-27T04:10:26.342Z,2.67
2022-08-27T04:13:12.506Z,2.23
2022-08-27T04:15:45.726Z,3.07
2022-08-27T04:18:16.886Z,2.70
2022-08-27T04:20:48.543Z,3.33
2022-08-27T04:23:17.841Z,2.87
2022-08-27T04:25:47.033Z,2.67
2022-08-27T04:28:17.330Z,2.50
2022-08-27T04:30:47.945Z,2.50
2022-08-27T04:33:17.922Z,2.37
2022-08-27T04:35:49.532Z,3.47
2022-08-27T04:38:18.601Z,2.80
2022-08-27T04:41:04.592Z,2.53
2022-08-27T04:43:33.161Z,2.57
2022-08-27T04:46:01.888Z,2.47
2022-08-27T04:48:30.595Z,2.70
2022-08-27T04:51:00.625Z,3.20
2022-08-27T04:53:30.937Z,3.13
2022-08-27T04:55:59.545Z,2.70
2022-08-27T04:58:28.314Z,2.70
2022-08-27T05:01:01.617Z,2.80
2022-08-27T05:03:30.511Z,2.67
2022-08-27T05:06:06.231Z,2.80
2022-08-27T05:08:36.175Z,3.03
2022-08-27T05:11:08.678Z,2.63
2022-08-27T05:13:38.282Z,2.87
2022-08-27T05:16:09.879Z,2.90
2022-08-27T05:18:47.791Z,2.73
2022-08-27T05:21:20.103Z,2.80
2022-08-27T05:23:48.873Z,3.30
2022-08-27T05:26:17.658Z,2.97
2022-08-27T05:28:46.709Z,2.93
2022-08-27T05:31:16.846Z,3.00
2022-08-27T05:33:45.585Z,3.00
2022-08-27T05:36:20.749Z,2.97
2022-08-27T05:38:50.497Z,2.80
2022-08-27T05:41:22.250Z,3.30
2022-08-27T05:43:51.011Z,2.73
2022-08-27T05:46:22.466Z,3.27
2022-08-27T05:48:53.001Z,2.47
2022-08-27T05:51:28.327Z,2.93
2022-08-27T05:53:59.282Z,3.63
2022-08-27T05:56:29.780Z,2.63
2022-08-27T05:59:16.456Z,2.50
2022-08-27T06:01:48.570Z,3.20
2022-08-27T06:04:18.705Z,3.07
2022-08-27T06:06:50.026Z,3.53
2022-08-27T06:09:21.420Z,3.03
2022-08-27T06:11:50.884Z,2.53
2022-08-27T06:14:19.367Z,2.97
2022-08-27T06:16:48.626Z,2.57
2022-08-27T06:19:17.859Z,2.40
2022-08-27T06:21:46.294Z,3.03
2022-08-27T06:24:31.143Z,2.80
2022-08-27T06:26:59.793Z,2.90
2022-08-27T06:29:28.424Z,2.50
2022-08-27T06:31:56.957Z,3.20
2022-08-27T06:34:25.770Z,3.00
2022-08-27T06:36:54.601Z,2.87
2022-08-27T06:39:23.246Z,3.00
2022-08-27T06:41:53.536Z,3.30
2022-08-27T06:44:24.594Z,2.77
2022-08-27T06:46:53.581Z,2.70
2022-08-27T06:49:23.422Z,2.70
2022-08-27T06:51:51.985Z,2.57
2022-08-27T06:54:20.422Z,3.40
2022-08-27T06:56:50.666Z,2.87
2022-08-27T06:59:21.487Z,3.17
2022-08-27T07:01:51.781Z,2.20
2022-08-27T07:04:32.344Z,2.73
2022-08-27T07:07:03.285Z,3.30
2022-08-27T07:09:33.251Z,3.00
2022-08-27T07:12:02.859Z,2.60
2022-08-27T07:14:37.749Z,3.00
2022-08-27T07:17:10.924Z,3.23
2022-08-27T07:19:40.959Z,2.73
2022-08-27T07:22:10.576Z,3.10
2022-08-27T07:24:39.630Z,3.40
2022-08-27T07:27:09.211Z,3.17
2022-08-27T07:29:39.464Z,3.20
2022-08-27T07:32:08.016Z,3.17
2022-08-27T07:34:36.805Z,3.53
2022-08-27T07:37:05.773Z,2.73
2022-08-27T07:39:34.423Z,3.20
2022-08-27T07:42:20.794Z,2.80
2022-08-27T07:44:51.221Z,3.13
2022-08-27T07:47:20.487Z,3.30
2022-08-27T07:49:49.134Z,3.07
2022-08-27T07:52:17.937Z,3.57
2022-08-27T07:54:47.691Z,3.17
2022-08-27T07:57:16.458Z,3.13
2022-08-27T07:59:45.247Z,3.70
2022-08-27T08:02:15.560Z,3.37
2022-08-27T08:04:44.120Z,3.47
2022-08-27T08:07:12.752Z,3.50
2022-08-27T08:09:41.230Z,3.47
2022-08-27T08:12:09.892Z,3.13
2022-08-27T08:14:38.426Z,3.30
2022-08-27T08:17:10.411Z,2.90
2022-08-27T08:19:41.238Z,3.77
2022-08-27T08:22:10.127Z,3.90
2022-08-27T08:24:38.827Z,3.50
2022-08-27T08:27:08.038Z,2.97
2022-08-27T08:29:37.729Z,3.00
2022-08-27T08:32:07.840Z,2.83
2022-08-27T08:34:37.106Z,3.27
2022-08-27T08:37:08.267Z,3.00
2022-08-27T08:39:38.688Z,2.70
2022-08-27T08:42:14.980Z,2.83
2022-08-27T08:44:48.807Z,2.70
2022-08-27T08:47:24.747Z,2.40
2022-08-27T08:50:00.196Z,2.50
2022-08-27T08:52:44.067Z,2.77
2022-08-27T08:55:25.287Z,2.20
2022-08-27T08:58:02.391Z,2.50
2022-08-27T09:00:31.858Z,2.27
2022-08-27T09:03:00.633Z,2.10
2022-08-27T09:05:29.240Z,2.70
2022-08-27T09:08:31.884Z,2.87
2022-08-27T09:11:01.242Z,2.80
2022-08-27T09:13:36.397Z,3.20
2022-08-27T09:16:06.259Z,2.57
2022-08-27T09:18:38.332Z,3.10
2022-08-27T09:21:17.256Z,3.03
2022-08-27T09:24:04.504Z,2.90
2022-08-27T09:26:37.186Z,2.40
2022-08-27T09:29:20.139Z,2.97
2022-08-27T09:31:55.695Z,2.63
2022-08-27T09:34:25.585Z,2.07
2022-08-27T09:37:01.699Z,2.50
2022-08-27T09:39:36.469Z,2.43
2022-08-27T09:42:06.108Z,2.47
2022-08-27T09:44:47.402Z,2.17
2022-08-27T09:47:19.261Z,1.83
2022-08-27T09:49:48.626Z,2.47
2022-08-27T09:52:37.827Z,2.53
2022-08-27T09:55:10.398Z,2.33
2022-08-27T09:57:44.625Z,2.03
2022-08-27T10:00:18.019Z,2.13
2022-08-27T10:02:55.257Z,2.63
2022-08-27T10:05:30.852Z,2.30
2022-08-27T10:08:04.360Z,2.93
2022-08-27T10:10:44.901Z,2.30
2022-08-27T10:13:19.760Z,2.70
2022-08-27T10:16:03.726Z,2.70
2022-08-27T10:18:44.991Z,2.03
2022-08-27T10:21:22.849Z,2.10
2022-08-27T10:24:03.910Z,2.47
2022-08-27T10:26:41.538Z,2.50
2022-08-27T10:29:19.838Z,2.73
2022-08-27T10:32:07.272Z,2.60
2022-08-27T10:34:47.250Z,2.97
2022-08-27T10:37:36.636Z,2.73
2022-08-27T10:40:18.298Z,2.60
2022-08-27T10:42:57.458Z,2.90
2022-08-27T10:45:42.655Z,2.87
2022-08-27T10:48:23.645Z,2.70
2022-08-27T10:50:58.206Z,2.53
2022-08-27T10:53:38.056Z,2.53
2022-08-27T10:56:15.006Z,2.30
2022-08-27T10:59:00.454Z,2.97
2022-08-27T11:01:39.344Z,2.73
2022-08-27T11:04:11.701Z,2.53
2022-08-27T11:06:45.920Z,2.93
2022-08-27T11:09:18.871Z,3.07
2022-08-27T11:12:13.339Z,2.43
2022-08-27T11:14:47.664Z,2.70
2022-08-27T11:17:26.642Z,2.60
2022-08-27T11:20:09.894Z,2.23
2022-08-27T11:22:43.555Z,2.90
2022-08-27T11:25:23.223Z,2.50
2022-08-27T11:27:55.060Z,2.60
2022-08-27T11:30:38.821Z,2.50
2022-08-27T11:33:16.022Z,2.40
2022-08-27T11:35:59.857Z,2.60
2022-08-27T11:38:50.841Z,2.57
2022-08-27T11:42:01.558Z,2.77
2022-08-27T11:44:31.628Z,2.40
2022-08-27T11:47:13.007Z,2.87
2022-08-27T11:49:48.029Z,2.50
2022-08-27T11:52:25.949Z,3.07
2022-08-27T11:54:59.384Z,2.40
2022-08-27T11:57:31.384Z,2.60
2022-08-27T12:00:12.813Z,2.40
2022-08-27T12:02:44.008Z,2.47
2022-08-27T12:05:26.720Z,2.40
2022-08-27T12:07:55.813Z,2.50
2022-08-27T12:10:36.706Z,2.30
2022-08-27T12:13:18.726Z,2.30
2022-08-27T12:15:56.486Z,2.30
2022-08-27T12:18:52.173Z,2.50
2022-08-27T12:21:45.730Z,2.00
2022-08-27T12:24:44.682Z,2.43
2022-08-27T12:27:28.367Z,2.00
2022-08-27T12:29:59.988Z,2.27
2022-08-27T12:32:33.965Z,2.43
2022-08-27T12:35:13.418Z,2.27
2022-08-27T12:37:48.625Z,2.13
2022-08-27T12:40:29.923Z,2.53
2022-08-27T12:43:08.635Z,2.00
2022-08-27T12:45:47.699Z,2.27
2022-08-27T12:48:20.936Z,2.00
2022-08-27T12:50:56.270Z,2.13
2022-08-27T12:53:57.769Z,2.23
2022-08-27T12:56:42.496Z,2.17
2022-08-27T12:59:33.065Z,1.40
2022-08-27T13:02:17.435Z,2.10
2022-08-27T13:04:48.239Z,2.17
2022-08-27T13:07:33.071Z,2.23
2022-08-27T13:10:13.593Z,2.13
2022-08-27T13:12:43.608Z,2.27
2022-08-27T13:15:23.253Z,2.47
2022-08-27T13:17:52.854Z,2.33
2022-08-27T13:20:24.130Z,2.27
2022-08-27T13:22:55.791Z,2.00
2022-08-27T13:25:28.042Z,2.07
2022-08-27T13:28:00.238Z,2.03
2022-08-27T13:30:36.136Z,2.00
2022-08-27T13:33:07.307Z,2.77
2022-08-27T13:35:37.700Z,1.80
2022-08-27T13:38:17.810Z,2.10
2022-08-27T13:40:56.794Z,2.13
2022-08-27T13:43:33.252Z,1.93
2022-08-27T13:46:03.861Z,2.47
2022-08-27T13:48:34.069Z,2.10
2022-08-27T13:51:03.451Z,2.10
2022-08-27T13:53:52.581Z,2.00
2022-08-27T13:56:28.308Z,1.93
2022-08-27T13:59:08.083Z,1.70
2022-08-27T14:01:39.798Z,2.73
2022-08-27T14:04:10.788Z,1.93
2022-08-27T14:06:44.111Z,1.50
2022-08-27T14:09:22.308Z,2.57
2022-08-27T14:11:59.344Z,1.90
2022-08-27T14:14:29.760Z,2.20
2022-08-27T14:17:00.759Z,1.83
2022-08-27T14:19:33.438Z,1.90
2022-08-27T14:22:06.272Z,1.83
2022-08-27T14:24:36.384Z,1.80
2022-08-27T14:27:10.661Z,2.20
2022-08-27T14:29:39.364Z,1.90
2022-08-27T14:32:09.103Z,1.70
2022-08-27T14:34:39.536Z,1.90
2022-08-27T14:37:08.656Z,1.97
2022-08-27T14:39:39.553Z,2.00
2022-08-27T14:42:11.525Z,2.00
2022-08-27T14:44:40.184Z,1.73
2022-08-27T14:47:10.848Z,1.80
2022-08-27T14:49:44.004Z,1.90
2022-08-27T14:52:13.954Z,1.83
2022-08-27T14:54:45.186Z,2.10
2022-08-27T14:57:13.746Z,1.83
2022-08-27T14:59:42.795Z,1.50
2022-08-27T15:02:15.013Z,1.83
2022-08-27T15:04:47.879Z,2.10
2022-08-27T15:07:19.798Z,2.03
2022-08-27T15:09:53.075Z,2.60
2022-08-27T15:12:26.400Z,1.53
2022-08-27T15:14:56.070Z,1.60
2022-08-27T15:17:33.433Z,1.60
2022-08-27T15:20:06.904Z,2.00
2022-08-27T15:22:37.715Z,1.60
2022-08-27T15:25:11.608Z,2.00
2022-08-27T15:27:40.690Z,2.10
2022-08-27T15:30:12.986Z,2.17
2022-08-27T15:32:45.014Z,1.80
2022-08-27T15:35:16.192Z,1.63
2022-08-27T15:37:45.705Z,1.87
2022-08-27T15:40:18.000Z,1.80
2022-08-27T15:42:48.591Z,1.60
2022-08-27T15:45:17.503Z,2.10
2022-08-27T15:47:46.076Z,1.77
2022-08-27T15:50:14.618Z,2.20
2022-08-27T15:52:43.536Z,1.73
2022-08-27T15:55:21.831Z,1.80
2022-08-27T15:57:51.247Z,1.60
2022-08-27T16:00:21.858Z,2.03
2022-08-27T16:02:51.185Z,1.77
2022-08-27T16:05:22.064Z,2.43
2022-08-27T16:07:51.545Z,1.93
2022-08-27T16:10:22.104Z,2.13
2022-08-27T16:12:51.244Z,1.77
2022-08-27T16:15:20.566Z,1.37
2022-08-27T16:17:50.801Z,1.50
2022-08-27T16:20:26.012Z,2.13
2022-08-27T16:22:55.343Z,1.80
2022-08-27T16:25:25.406Z,1.73
2022-08-27T16:27:54.502Z,1.93
2022-08-27T16:30:23.584Z,2.53
2022-08-27T16:32:54.419Z,1.67
2022-08-27T16:35:23.846Z,1.53
2022-08-27T16:37:52.738Z,1.87
2022-08-27T16:40:22.069Z,1.67
2022-08-27T16:42:53.668Z,1.90
2022-08-27T16:45:24.917Z,1.77
2022-08-27T16:48:11.060Z,1.90
2022-08-27T16:50:42.282Z,1.77
2022-08-27T16:53:13.895Z,1.50
2022-08-27T16:55:44.067Z,2.03
2022-08-27T16:58:20.078Z,1.87
2022-08-27T17:00:51.795Z,1.93
2022-08-27T17:03:22.242Z,1.87
2022-08-27T17:05:51.526Z,1.63
2022-08-27T17:08:22.078Z,2.07
2022-08-27T17:10:58.815Z,1.67
2022-08-27T17:13:32.886Z,2.07
2022-08-27T17:16:02.219Z,1.37
2022-08-27T17:18:31.738Z,1.60
2022-08-27T17:21:00.667Z,1.60
2022-08-27T17:23:34.151Z,1.70
2022-08-27T17:26:03.765Z,1.60
2022-08-27T17:28:34.586Z,1.53
2022-08-27T17:31:03.727Z,1.67
2022-08-27T17:33:36.481Z,2.03
2022-08-27T17:36:06.110Z,2.13
2022-08-27T17:38:37.710Z,1.93
2022-08-27T17:41:12.727Z,1.60
2022-08-27T17:43:43.522Z,1.47
2022-08-27T17:46:13.911Z,1.50
2022-08-27T17:48:43.081Z,2.07
2022-08-27T17:51:13.437Z,1.87
2022-08-27T17:53:47.264Z,1.80
2022-08-27T17:56:16.255Z,1.33
2022-08-27T17:58:46.396Z,1.83
2022-08-27T18:01:17.237Z,1.97
2022-08-27T18:03:47.984Z,2.13
2022-08-27T18:06:17.176Z,2.00
2022-08-27T18:08:45.796Z,1.63
2022-08-27T18:11:16.700Z,1.77
2022-08-27T18:13:48.939Z,1.23
2022-08-27T18:16:17.587Z,2.23
2022-08-27T18:18:46.406Z,1.63
2022-08-27T18:21:25.206Z,2.37
2022-08-27T18:23:54.992Z,2.23
2022-08-27T18:26:25.580Z,1.80
2022-08-27T18:28:57.566Z,2.10
2022-08-27T18:31:31.915Z,1.73
2022-08-27T18:34:01.596Z,2.23
2022-08-27T18:36:35.401Z,1.90
2022-08-27T18:39:03.991Z,1.60
2022-08-27T18:41:33.938Z,1.50
2022-08-27T18:44:16.999Z,1.80
2022-08-27T18:46:47.041Z,2.10
2022-08-27T18:49:16.093Z,2.03
2022-08-27T18:51:50.688Z,1.83
2022-08-27T18:54:22.474Z,1.73
2022-08-27T18:56:51.439Z,2.80
2022-08-27T18:59:25.696Z,2.70
2022-08-27T19:01:55.227Z,2.30
2022-08-27T19:04:24.710Z,2.00
2022-08-27T19:06:53.474Z,1.90
2022-08-27T19:09:22.207Z,2.20
2022-08-27T19:11:51.933Z,1.90
2022-08-27T19:14:21.992Z,2.13
2022-08-27T19:16:56.086Z,1.93
2022-08-27T19:19:26.579Z,2.23
2022-08-27T19:21:55.278Z,2.97
2022-08-27T19:24:24.800Z,1.90
2022-08-27T19:26:55.192Z,2.07
2022-08-27T19:29:25.549Z,1.90
2022-08-27T19:31:54.410Z,1.93
2022-08-27T19:34:25.388Z,2.00
2022-08-27T19:36:54.226Z,2.13
2022-08-27T19:39:23.067Z,2.10
2022-08-27T19:41:52.031Z,2.37
2022-08-27T19:44:20.825Z,2.07
2022-08-27T19:46:55.862Z,2.20
2022-08-27T19:49:25.137Z,2.10
2022-08-27T19:51:55.002Z,2.17
2022-08-27T19:54:24.170Z,2.20
2022-08-27T19:57:01.478Z,1.60
2022-08-27T19:59:32.392Z,1.93
2022-08-27T20:02:02.768Z,2.20
2022-08-27T20:04:35.754Z,1.97
2022-08-27T20:07:08.711Z,1.60
2022-08-27T20:09:37.466Z,1.73
2022-08-27T20:12:06.820Z,2.37
2022-08-27T20:14:35.387Z,2.57
2022-08-27T20:17:10.547Z,2.50
2022-08-27T20:19:39.566Z,2.03
2022-08-27T20:22:08.052Z,2.40
2022-08-27T20:24:37.490Z,2.03
2022-08-27T20:27:06.647Z,2.47
2022-08-27T20:29:35.645Z,2.10
2022-08-27T20:32:04.849Z,2.20
2022-08-27T20:34:35.279Z,2.20
2022-08-27T20:37:05.041Z,2.07
2022-08-27T20:39:34.390Z,1.83
2022-08-27T20:42:03.203Z,1.90
2022-08-27T20:44:33.107Z,2.40
2022-08-27T20:47:03.476Z,2.17
2022-08-27T20:49:35.371Z,1.77
2022-08-27T20:52:08.634Z,1.87
2022-08-27T20:54:39.799Z,2.10
2022-08-27T20:57:09.548Z,2.30
2022-08-27T20:59:55.632Z,1.93
2022-08-27T21:02:26.478Z,2.43
2022-08-27T21:04:55.325Z,1.97
2022-08-27T21:07:26.299Z,1.63
2022-08-27T21:09:57.210Z,1.53
2022-08-27T21:12:27.053Z,1.80
2022-08-27T21:14:57.792Z,1.83
2022-08-27T21:17:30.541Z,2.10
2022-08-27T21:19:59.472Z,1.80
2022-08-27T21:22:30.285Z,1.53
2022-08-27T21:24:59.135Z,1.90
2022-08-27T21:27:28.469Z,1.77
2022-08-27T21:29:57.278Z,1.30
2022-08-27T21:32:26.828Z,1.50
2022-08-27T21:34:55.810Z,1.73
2022-08-27T21:37:24.730Z,1.70
2022-08-27T21:39:54.657Z,2.30
2022-08-27T21:42:23.550Z,2.17
2022-08-27T21:44:52.404Z,2.03
2022-08-27T21:47:21.255Z,1.70
2022-08-27T21:49:50.420Z,2.10
2022-08-27T21:52:19.539Z,1.57
2022-08-27T21:54:48.338Z,1.93
2022-08-27T21:57:19.790Z,1.93
2022-08-27T21:59:50.169Z,1.87
2022-08-27T22:02:39.260Z,2.03
2022-08-27T22:05:09.656Z,1.77
2022-08-27T22:07:38.456Z,1.93
2022-08-27T22:10:08.798Z,2.43
2022-08-27T22:12:39.055Z,2.57
2022-08-27T22:15:09.784Z,2.33
2022-08-27T22:17:38.567Z,1.70
2022-08-27T22:20:10.053Z,2.20
2022-08-27T22:22:39.076Z,2.47
2022-08-27T22:25:09.602Z,1.83
2022-08-27T22:27:40.451Z,2.07
2022-08-27T22:30:11.477Z,2.17
2022-08-27T22:32:41.688Z,1.53
2022-08-27T22:35:11.557Z,2.60
2022-08-27T22:37:40.058Z,2.03
2022-08-27T22:40:19.716Z,2.40
2022-08-27T22:42:50.686Z,2.20
2022-08-27T22:45:20.759Z,2.27
2022-08-27T22:47:49.919Z,2.40
2022-08-27T22:50:19.120Z,2.63
2022-08-27T22:52:48.695Z,2.60
2022-08-27T22:55:20.899Z,2.17
2022-08-27T22:57:53.538Z,3.30
2022-08-27T23:00:25.877Z,2.90
2022-08-27T23:02:54.347Z,3.23
2022-08-27T23:05:24.532Z,3.27
2022-08-27T23:07:55.991Z,2.80
2022-08-27T23:10:27.677Z,3.60
2022-08-27T23:12:58.264Z,3.60
2022-08-27T23:15:29.003Z,3.30
2022-08-27T23:18:01.519Z,3.17
2022-08-27T23:20:31.736Z,3.07
2022-08-27T23:23:00.399Z,3.70
2022-08-27T23:25:49.558Z,3.10
2022-08-27T23:28:20.438Z,3.23
2022-08-27T23:30:49.459Z,3.00
2022-08-27T23:33:18.788Z,3.03
2022-08-27T23:35:48.496Z,3.80
2022-08-27T23:38:18.092Z,3.53
2022-08-27T23:40:48.351Z,3.27
2022-08-27T23:43:17.650Z,3.93
2022-08-27T23:45:48.106Z,3.53
2022-08-27T23:48:16.865Z,4.00
2022-08-27T23:50:46.029Z,3.97
2022-08-27T23:53:14.824Z,3.70
2022-08-27T23:55:43.558Z,3.67
2022-08-27T23:58:12.978Z,4.07
